Ron Brown — WTEC — position and weather

sailwx.info

Track history (hours):
 
Tides and Currents Weather Stations Pressure Air Temp Water Temp Dewpoint Dewpoint Depression Visibility Wind Speed Wind Dir Waves Ship Positions

Oceanographic research ship Ron Brown (USA)

Detailed information on ship capabilities available from University of Delaware's Ocean Information Center.

Owner: UNIVERSITY OF SOUTHERN CALIFORNIA, TERMINAL ISLAND, CA. More information available from US FCC via Universal Licensing System and Coast Guard Vessel Documentation Center.

Last reported at 2017-Aug-16 17:50 UTC. Time now 2017-Aug-16 19:11 UTC.
Position N 22°42' W 084°06'.

Type: Other ship. MMSI: 368996000.

Wind from 010 at 14 knots

Barometer 1016.6 mb
Air temperature 29.7 ° C
Water temperature 30.6 ° C

Date/timePositionNaut miles runAvg speedWind from/ knotsBaromVisibWave heightAir tempDewpointWater temp
2017-Aug-16 17:50N 22°42' W 084°06'8 8.3 010 / 141016.6 29.7 30.6
2017-Aug-16 16:51N 22°36' W 084°12'6 5.6 030 / 91017.0 29.4 30.5
2017-Aug-16 15:52N 22°36' W 084°18'8 8.3 060 / 71017.5 29.4 30.4
2017-Aug-16 14:53N 22°30' W 084°24'1111.1 070 / 111017.5 29.0 30.4
2017-Aug-16 13:53N 22°30' W 084°36'8 8.3 070 / 121017.3 28.7 30.4
2017-Aug-16 12:54N 22°24' W 084°42'8 9.1 080 / 131017.0 28.9 30.4
2017-Aug-16 12:00N 22°18' W 084°48'0 0.0 080 / 131016.310.8 28.825.030.2
2017-Aug-16 11:55N 22°18' W 084°48'6 6.1 070 / 111016.4 28.8 30.2
2017-Aug-16 10:56N 22°12' W 084°48'8 8.2 080 / 111015.8 28.9 30.2
2017-Aug-16 09:56N 22°06' W 084°54'8 8.3 080 / 101015.6 29.2 30.6
2017-Aug-16 08:57N 22°00' W 085°00'6 6.1 080 / 101015.3 29.4 30.5
2017-Aug-16 07:58N 21°54' W 085°00'8 8.3 060 / 91015.4 29.5 30.6
2017-Aug-16 06:59N 21°48' W 084°54'0 0.0 050 / 71015.8 28.7 30.6
2017-Aug-16 06:00N 21°48' W 084°54'0 0.0 070 / 61016.3 5.4 28.026.730.7
2017-Aug-16 05:59N 21°48' W 084°54'6 4.8 060 / 51016.3 28.6 30.7
2017-Aug-16 04:49N 21°48' W 085°00'6 5.7 050 / 111016.6 29.6 30.7
2017-Aug-16 03:50N 21°48' W 085°06'6 5.7 040 / 121016.5 29.9 30.5
2017-Aug-16 02:51N 21°48' W 085°12'0 0.0 040 / 111016.5 29.8 30.6
2017-Aug-16 01:52N 21°48' W 085°12'0 0.0 060 / 91016.3 29.7 30.6
2017-Aug-16 00:52N 21°48' W 085°12'13 6.4 050 / 71015.7 30.0 30.5
2017-Aug-15 22:54N 21°42' W 085°24'0 0.0 060 / 41014.5 30.0 30.2
2017-Aug-15 21:55N 21°42' W 085°24'6 5.6 090 / 71014.8 30.0 30.2
2017-Aug-15 20:55N 21°42' W 085°30'6 5.7 090 / 91014.8 29.8 30.0
2017-Aug-15 19:56N 21°42' W 085°36'6 5.7 090 / 81014.9 29.5 29.9
2017-Aug-15 18:57N 21°42' W 085°42'0 0.0 080 / 61015.3 29.5 30.0
2017-Aug-15 17:58N 21°42' W 085°42'0 0.0 080 / 71015.7 29.4 30.0
2017-Aug-15 16:59N 21°42' W 085°42'0 0.0 070 / 101016.2 29.3 29.9
2017-Aug-15 15:59N 21°42' W 085°42'13 6.4 080 / 91016.1 29.5 29.7
2017-Aug-15 14:00N 21°36' W 085°54'0 0.0 090 / 61015.7 29.5 29.7
2017-Aug-15 13:00N 21°36' W 085°54'6 5.6 090 / 41015.3 29.1 29.6
2017-Aug-15 12:00N 21°36' W 086°00'6 5.6 080 / 91014.410.8 29.126.329.6
2017-Aug-15 11:00N 21°36' W 086°06'6 5.6 090 / 91014.3 29.0 29.4
2017-Aug-15 10:00N 21°36' W 086°12'0 0.0 080 / 121014.1 29.1 29.4
2017-Aug-15 09:00N 21°36' W 086°12'6 5.6 080 / 131014.1 29.2 29.5
2017-Aug-15 08:00N 21°36' W 086°18'6 5.6 090 / 101014.0 29.2 29.6
2017-Aug-15 07:00N 21°36' W 086°24'8 8.2 100 / 101014.3 29.2 29.3
2017-Aug-15 06:00N 21°30' W 086°30'6 5.6 120 / 101015.0 5.4 28.925.829.4
2017-Aug-15 05:00N 21°30' W 086°36'6 5.6 100 / 111015.2 29.1 29.1
2017-Aug-15 04:00N 21°30' W 086°42'6 5.6 100 / 121015.9 29.1 28.6
2017-Aug-15 03:00N 21°30' W 086°36'8 8.2 110 / 81015.7 29.2 29.6
2017-Aug-15 02:00N 21°36' W 086°42'6 6.0 100 / 151014.7 29.2 29.3
2017-Aug-15 01:00N 21°42' W 086°42'1212.0 110 / 121014.0 29.2 27.7
2017-Aug-15 00:00N 21°54' W 086°42'8 8.2 090 / 121013.5 29.3 28.0
2017-Aug-14 23:00N 22°00' W 086°48'2311.5 090 / 101013.3 28.9 26.7
2017-Aug-14 21:00N 22°06' W 087°12'1111.1 090 / 101013.2 29.3 29.6
2017-Aug-14 20:00N 22°06' W 087°24'1111.1 090 / 81013.8 29.0 27.8
2017-Aug-14 19:00N 22°06' W 087°36'1312.6 060 / 61014.3 28.3 28.3
2017-Aug-14 18:00N 22°12' W 087°48'1110.9 110 / 51014.810.8 28.425.928.4
2017-Aug-14 16:59N 22°12' W 088°00'1110.9 130 / 71015.3 27.7 29.2
2017-Aug-14 15:58N 22°12' W 088°12'1111.1 150 / 91015.6 27.6 29.0
2017-Aug-14 14:58N 22°12' W 088°24'1817.7 150 / 71015.4 27.1 27.8
2017-Aug-14 13:58N 22°18' W 088°42'1111.1 140 / 81014.8 27.2 28.1
2017-Aug-14 12:58N 22°18' W 088°54'1313.1 140 / 81014.3 27.5 28.1
2017-Aug-14 12:00N 22°12' W 089°06'0 0.0 140 / 131013.810.8 27.625.429.2
2017-Aug-14 11:59N 22°12' W 089°06'1110.9 150 / 111013.8 27.7 29.1
2017-Aug-14 10:58N 22°12' W 089°18'1312.6 150 / 131013.2 27.6 29.3
2017-Aug-14 09:58N 22°06' W 089°30'1312.9 140 / 171012.7 27.5 28.9
2017-Aug-14 08:59N 22°00' W 089°42'8 8.0 120 / 151012.8 27.1 27.8
2017-Aug-14 07:58N 21°54' W 089°48'1111.3 110 / 151012.8 27.9 28.6
2017-Aug-14 06:59N 21°54' W 090°00'1312.9 100 / 131013.0 27.3 28.2
2017-Aug-14 06:00N 21°48' W 090°12'0 0.0 100 / 191013.7 5.4 27.625.928.7
2017-Aug-14 05:59N 21°48' W 090°12'1312.7 100 / 141013.6 27.9 28.9
2017-Aug-14 04:59N 21°42' W 090°24'1312.5 110 / 161014.1 27.9 29.2
2017-Aug-14 03:58N 21°36' W 090°36'1312.7 100 / 121014.1 27.9 28.0
2017-Aug-14 02:58N 21°30' W 090°48'1111.2 070 / 111013.6 28.0 27.4
2017-Aug-14 01:58N 21°30' W 091°00'8 8.2 050 / 111013.4 28.3 28.9
2017-Aug-14 00:58N 21°24' W 091°06'1313.1 030 / 111013.2 28.2 29.1
2017-Aug-14 00:00N 21°18' W 091°18'1616.1 030 / 131012.910.8 28.325.229.3
2017-Aug-13 22:59N 21°06' W 091°30'1312.7 030 / 81012.9 28.3 29.5
2017-Aug-13 21:59N 21°00' W 091°42'1312.7 050 / 51012.8 28.3 29.8
2017-Aug-13 20:59N 20°54' W 091°54'8 8.4 100 / 61013.1 28.4 29.8
2017-Aug-13 20:00N 20°48' W 092°00'1313.2 100 / 91013.6 28.7 29.9
2017-Aug-13 19:00N 20°36' W 092°06'1312.7 090 / 91013.7 28.7 29.9
2017-Aug-13 18:00N 20°30' W 092°18'1313.3 090 / 91014.2 28.6 29.3
2017-Aug-13 17:00N 20°18' W 092°24'1312.8 080 / 81014.7 28.7 29.3
2017-Aug-13 16:00N 20°12' W 092°36'1313.3 100 / 71015.1 28.8 29.2
2017-Aug-13 15:00N 20°00' W 092°42'8 8.2 100 / 101015.0 28.8 29.4
2017-Aug-13 14:00N 19°54' W 092°48'1212.0 090 / 121014.3 28.7 29.3
2017-Aug-13 13:00N 19°42' W 092°48'1313.3 130 / 61014.1 28.2 29.4
2017-Aug-13 12:00N 19°30' W 092°54'6 6.0 110 / 51013.310.8 27.424.129.2
2017-Aug-13 11:00N 19°24' W 092°54'1313.3 060 / 51012.7 27.5 29.1
2017-Aug-13 10:00N 19°12' W 093°00'1212.0 110 / 81012.5 27.0 28.4
2017-Aug-13 09:00N 19°00' W 093°00'1212.0 130 / 191013.5 26.7 28.3
2017-Aug-13 08:00N 18°48' W 093°00'0 0.0 110 / 181013.6 26.6 28.2
2017-Aug-13 06:59N 18°48' W 093°00'8 8.4 070 / 161014.1 28.4 27.9
2017-Aug-13 06:00N 18°54' W 093°06'8 8.3 050 / 161014.1 28.2 28.3
2017-Aug-13 05:00N 19°00' W 093°12'8 8.3 030 / 121014.4 28.5 29.1
2017-Aug-13 04:00N 19°06' W 093°18'0 0.0 030 / 121014.8 28.6 29.0
2017-Aug-13 03:00N 19°06' W 093°18'0 0.0 040 / 151014.5 28.6 29.0
2017-Aug-13 02:00N 19°06' W 093°18'6 6.0 030 / 111014.0 28.6 29.3
2017-Aug-13 01:00N 19°12' W 093°18'1313.3 030 / 121013.6 28.5 29.2
2017-Aug-13 00:00N 19°24' W 093°24'6 5.9 030 / 111013.310.8 28.726.529.2
2017-Aug-12 22:59N 19°30' W 093°24'8 8.4 030 / 91013.3 28.7 29.1
2017-Aug-12 22:00N 19°36' W 093°30'0 0.0 060 / 81013.6 28.7 29.4
2017-Aug-12 21:00N 19°36' W 093°30'6 6.0 110 / 101013.8 28.7 29.1
2017-Aug-12 20:00N 19°42' W 093°30'8 8.2 120 / 91014.4 28.9 29.1
2017-Aug-12 19:00N 19°48' W 093°36'8 8.2 110 / 101015.0 28.8 29.3
2017-Aug-12 18:00N 19°54' W 093°42'6 6.0 120 / 141015.7 29.0 29.4
2017-Aug-12 17:00N 20°00' W 093°42'0 0.0 110 / 91016.2 29.1 29.7
2017-Aug-12 16:00N 20°00' W 093°42'0 0.0 090 / 111016.2 29.0 29.6
2017-Aug-12 14:59N 20°00' W 093°42'8 8.2 080 / 131015.4 28.7 29.5
2017-Aug-12 13:59N 20°06' W 093°48'8 8.2 070 / 131015.4 28.7 29.3
2017-Aug-12 12:59N 20°12' W 093°54'8 8.4 090 / 121015.4 28.6 29.0
2017-Aug-12 12:00N 20°18' W 094°00'8 8.1 080 / 91015.210.8 27.924.628.9
2017-Aug-12 10:59N 20°24' W 094°06'8 8.4 090 / 91014.8 28.1 28.8
2017-Aug-12 10:00N 20°30' W 094°12'6 6.0 100 / 101014.5 27.6 28.6
2017-Aug-12 09:00N 20°36' W 094°12'0 0.0 050 / 71014.4 27.8 28.5
2017-Aug-12 08:00N 20°36' W 094°12'6 5.6 070 / 91014.9 27.9 28.5
2017-Aug-12 07:00N 20°36' W 094°18'6 5.6 080 / 111015.3 28.0 28.7
2017-Aug-12 06:00N 20°36' W 094°24'6 5.6 080 / 111016.0 5.4 27.525.928.6
2017-Aug-12 05:00N 20°36' W 094°30'8 8.2 080 / 101016.5 28.3 28.5
2017-Aug-12 04:00N 20°42' W 094°36'6 5.6 070 / 111015.8 28.3 28.8
2017-Aug-12 03:00N 20°42' W 094°42'0 0.0 080 / 151015.7 28.4 28.9
2017-Aug-12 02:00N 20°42' W 094°42'0 0.0 080 / 161015.2 28.5 29.0
2017-Aug-12 01:00N 20°42' W 094°42'8 4.1 080 / 141014.8 28.4 29.2
2017-Aug-11 23:00N 20°48' W 094°36'1312.7 070 / 121014.3 29.0 28.8
2017-Aug-11 22:00N 20°54' W 094°24'1312.7 070 / 121014.8 28.9 28.8
2017-Aug-11 21:00N 21°00' W 094°12'1312.7 100 / 101015.7 28.7 28.8
2017-Aug-11 20:00N 21°06' W 094°00'2512.3 090 / 111016.5 28.8 29.0
2017-Aug-11 18:00N 21°24' W 093°42'8 8.2 100 / 111017.3 28.9 29.1
2017-Aug-11 17:00N 21°30' W 093°36'1312.7 100 / 111017.3 28.9 29.2
2017-Aug-11 16:00N 21°36' W 093°24'1312.7 110 / 131017.3 29.0 29.3
2017-Aug-11 15:00N 21°42' W 093°12'1312.7 120 / 141017.1 29.1 29.7
2017-Aug-11 14:00N 21°48' W 093°00'8 8.2 100 / 121016.9 29.2 29.5
2017-Aug-11 13:00N 21°54' W 092°54'6 6.0 100 / 81016.9 29.2 29.5
2017-Aug-11 12:00N 22°00' W 092°54'0 0.0 120 / 131016.0 29.1 29.5
2017-Aug-11 11:00N 22°00' W 092°54'0 0.0 120 / 151015.3 28.9 29.5
2017-Aug-11 10:00N 22°00' W 092°54'8 8.2 100 / 171015.0 29.0 29.5
2017-Aug-11 09:00N 21°54' W 092°48'6 5.6 100 / 191015.4 29.2 29.5
2017-Aug-11 08:00N 21°54' W 092°42'8 8.2 100 / 191015.8 29.2 29.5
2017-Aug-11 07:00N 21°48' W 092°36'6 5.6 100 / 221015.9 29.0 29.5
2017-Aug-11 06:00N 21°48' W 092°30'1312.5 090 / 221016.1 5.4 29.126.629.5
2017-Aug-11 04:59N 21°42' W 092°18'0 0.0 080 / 221016.5 29.2 29.4
2017-Aug-11 03:59N 21°42' W 092°18'6 5.5 060 / 211016.6 29.3 29.4
2017-Aug-11 02:58N 21°42' W 092°12'8 8.2 080 / 201016.2 29.4 29.5
2017-Aug-11 01:58N 21°36' W 092°06'6 5.6 070 / 201015.3 29.3 29.8
2017-Aug-11 00:58N 21°36' W 092°00'18 8.9 060 / 161014.9 29.1 29.8
2017-Aug-10 22:58N 21°30' W 091°42'8 8.2 070 / 141014.6 29.9 29.8
2017-Aug-10 21:58N 21°24' W 091°36'6 5.6 070 / 131014.7 29.4 29.7
2017-Aug-10 20:58N 21°24' W 091°30'0 0.0 050 / 131014.5 28.3 29.6
2017-Aug-10 19:58N 21°24' W 091°30'1312.7 080 / 111015.1 28.8 29.4
2017-Aug-10 18:58N 21°18' W 091°18'6 5.8 090 / 121015.6 28.4 29.0
2017-Aug-10 18:00N 21°18' W 091°12'0 0.0 100 / 131016.110.8 32.027.028.9
2017-Aug-10 17:58N 21°18' W 091°12'6 5.5 090 / 121016.0 28.4 28.9
2017-Aug-10 16:57N 21°18' W 091°06'1312.7 090 / 131016.4 28.2 28.9
2017-Aug-10 15:57N 21°12' W 090°54'6 5.6 090 / 151016.4 27.5 28.4
2017-Aug-10 14:57N 21°12' W 090°48'8 8.2 100 / 151016.1 27.1 27.6
2017-Aug-10 13:57N 21°06' W 090°42'1212.0 080 / 161015.4 26.6 27.4
2017-Aug-10 12:57N 21°18' W 090°42'8 8.6 070 / 131015.1 26.3 26.9
2017-Aug-10 12:00N 21°24' W 090°36'0 0.0 060 / 131015.010.8 25.824.726.3
2017-Aug-10 11:57N 21°24' W 090°36'1313.2 070 / 121014.8 25.7 26.2
2017-Aug-10 10:57N 21°36' W 090°30'1312.9 090 / 131015.0 26.2 26.0
2017-Aug-10 09:58N 21°42' W 090°18'1312.7 090 / 121015.0 26.4 26.6
2017-Aug-10 08:58N 21°48' W 090°06'1111.1 090 / 131015.1 26.5 27.3
2017-Aug-10 07:58N 21°48' W 089°54'1111.1 090 / 121015.3 25.9 26.5
2017-Aug-10 06:58N 21°48' W 089°42'1313.1 090 / 121015.7 25.7 25.0
2017-Aug-10 06:00N 21°54' W 089°30'0 0.0 100 / 151016.4 5.4 26.125.326.3
2017-Aug-10 05:58N 21°54' W 089°30'1111.1 100 / 141016.3 26.4 26.6
2017-Aug-10 04:58N 21°54' W 089°18'1312.6 090 / 151016.3 27.1 27.3
2017-Aug-10 03:58N 22°00' W 089°06'1111.1 090 / 151016.0 27.5 27.9
2017-Aug-10 02:58N 22°00' W 088°54'1312.4 080 / 141015.3 27.5 28.0
2017-Aug-10 01:57N 22°06' W 088°42'1716.7 080 / 131014.9 27.0 26.8
2017-Aug-10 00:57N 22°06' W 088°24'2311.6 080 / 131014.2 27.1 26.4
2017-Aug-09 22:58N 22°00' W 088°00'8 8.2 090 / 151013.3 27.9 25.6
2017-Aug-09 21:58N 21°54' W 087°54'6 5.6 070 / 161012.7 26.8 24.9
2017-Aug-09 20:58N 21°54' W 088°00'6 6.0 080 / 161012.7 26.6 24.4
2017-Aug-09 19:58N 22°00' W 088°00'6 6.0 070 / 181012.6 27.2 25.9
2017-Aug-09 18:58N 22°06' W 088°00'6 6.2 090 / 191013.6 27.8 27.4
2017-Aug-09 18:00N 22°12' W 088°00'0 0.0 090 / 191014.110.8 28.326.628.7
2017-Aug-09 17:59N 22°12' W 088°00'1212.0 100 / 191014.1 28.3 28.8
2017-Aug-09 16:59N 22°24' W 088°00'6 6.0 100 / 191014.5 28.3 28.4
2017-Aug-09 15:59N 22°30' W 088°00'0 0.0 110 / 161014.8 28.4 28.6
2017-Aug-09 14:59N 22°30' W 088°00'6 6.0 110 / 151014.7 28.5 28.5
2017-Aug-09 13:59N 22°36' W 088°00'6 6.0 110 / 201013.9 28.7 28.9
2017-Aug-09 12:59N 22°42' W 088°00'1212.2 090 / 211013.5 28.6 28.9
2017-Aug-09 12:00N 22°54' W 088°00'0 0.0 090 / 191013.010.8 28.125.328.7
2017-Aug-09 11:59N 22°54' W 088°00'6 6.0 090 / 211013.1 28.1 28.7
2017-Aug-09 10:59N 23°00' W 088°00'6 6.1 070 / 161012.7 28.2 29.4
2017-Aug-09 10:00N 23°06' W 088°00'6 6.0 090 / 221013.0 28.1 29.6
2017-Aug-09 09:00N 23°12' W 088°00'6 6.0 080 / 161012.9 28.3 29.6
2017-Aug-09 08:00N 23°18' W 088°00'6 6.0 090 / 201012.8 29.0 29.6
2017-Aug-09 07:00N 23°24' W 088°00'1212.0 090 / 181013.3 28.5 29.5
2017-Aug-09 06:00N 23°36' W 088°00'6 6.0 080 / 131014.2 5.4 28.525.829.7
2017-Aug-09 05:00N 23°42' W 088°00'0 0.0 080 / 141014.5 28.9 29.6
2017-Aug-09 04:00N 23°42' W 088°00'6 6.0 080 / 121014.7 28.5 29.4
2017-Aug-09 03:00N 23°48' W 088°00'6 6.0 100 / 161014.2 28.3 29.5
2017-Aug-09 02:00N 23°54' W 088°00'1212.0 100 / 141013.5 27.7 29.4
2017-Aug-09 01:00N 24°06' W 088°00'6 6.0 130 / 141013.3 26.4 29.0
2017-Aug-09 00:00N 24°12' W 088°00'6 6.0 180 / 121013.4 5.4 25.924.729.2
2017-Aug-08 23:00N 24°18' W 088°00'0 0.0 090 / 171012.4 30.1 29.3
2017-Aug-08 22:00N 24°18' W 088°00'0 0.0 090 / 141012.4 29.9 29.4
2017-Aug-08 21:00N 24°18' W 088°00'6 6.0 080 / 181012.7 30.1 29.5
2017-Aug-08 20:00N 24°24' W 088°00'1212.0 090 / 201012.8 30.0 29.5
2017-Aug-08 19:00N 24°36' W 088°00'6 6.0 080 / 171013.5 30.0 30.0
2017-Aug-08 18:00N 24°42' W 088°00'6 6.0 070 / 141014.5 29.3 30.0
2017-Aug-08 17:00N 24°48' W 088°00'6 6.0 080 / 171014.5 29.4 30.1
2017-Aug-08 16:00N 24°54' W 088°00'6 6.0 080 / 141014.4 29.7 30.2
2017-Aug-08 15:00N 25°00' W 088°00'0 0.0 100 / 131014.4 30.3 30.0
2017-Aug-08 14:00N 25°00' W 088°00'0 0.0 100 / 151014.5 29.7 30.1
2017-Aug-08 13:00N 25°00' W 088°00'0 0.0 100 / 171014.2 29.9 30.1
2017-Aug-08 12:00N 25°00' W 088°00'6 6.0 110 / 171013.710.8 29.624.330.1
2017-Aug-08 11:00N 24°54' W 088°00'1212.4 120 / 151013.0 29.5 30.2
2017-Aug-08 10:00N 24°48' W 088°12'8 8.1 110 / 191012.5 29.5 30.0
2017-Aug-08 09:00N 24°42' W 088°18'1212.4 110 / 171012.4 29.1 29.7
2017-Aug-08 08:00N 24°36' W 088°30'1212.5 110 / 171012.5 28.9 30.4
2017-Aug-08 07:00N 24°30' W 088°42'8 8.1 090 / 111012.8 29.3 30.5
2017-Aug-08 06:00N 24°24' W 088°48'1616.2 110 / 221013.5 5.4 28.925.330.5
2017-Aug-08 05:00N 24°12' W 089°00'1212.5 110 / 161013.8 29.3 30.5
2017-Aug-08 04:00N 24°06' W 089°12'1212.5 080 / 161013.7 29.8 30.5
2017-Aug-08 03:00N 24°00' W 089°24'1312.5 060 / 141013.5 29.9 30.5
2017-Aug-08 02:00N 23°54' W 089°36'8 8.1 060 / 161012.6 30.1 30.5
2017-Aug-08 01:00N 23°48' W 089°42'1616.3 070 / 111012.2 29.9 30.6
2017-Aug-08 00:00N 23°36' W 089°54'1312.5 080 / 121012.2 29.9 30.6
2017-Aug-07 23:00N 23°30' W 090°06'1312.5 080 / 101012.3 29.8 30.7
2017-Aug-07 22:00N 23°24' W 090°18'1312.5 080 / 101012.3 29.9 30.8
2017-Aug-07 21:00N 23°18' W 090°30'1111.0 070 / 91012.5 29.8 30.8
2017-Aug-07 20:00N 23°18' W 090°42'1312.6 070 / 91013.2 29.7 30.7
2017-Aug-07 19:00N 23°12' W 090°54'6 5.5 090 / 101013.7 29.9 30.7
2017-Aug-07 18:00N 23°12' W 091°00'1817.6 110 / 101014.310.8 30.024.630.7
2017-Aug-07 17:00N 23°06' W 091°18'1111.0
2017-Aug-07 16:00N 23°06' W 091°30'1312.6 130 / 111014.2 30.0 30.7
2017-Aug-07 15:00N 23°00' W 091°42'1111.0 110 / 111014.0 29.8 30.6
2017-Aug-07 14:00N 23°00' W 091°54'1312.6 110 / 121013.5 29.8 30.7
2017-Aug-07 13:00N 22°54' W 092°06'1111.1 120 / 131013.1 30.0 30.7
2017-Aug-07 12:00N 22°54' W 092°18'1312.6 130 / 161012.610.8 30.025.430.6
2017-Aug-07 11:00N 22°48' W 092°30'1111.1 120 / 161012.3 29.8 30.7
2017-Aug-07 10:00N 22°48' W 092°42'1312.6 120 / 151012.1 30.0 30.7
2017-Aug-07 09:00N 22°42' W 092°54'1111.1 120 / 161012.2 30.0 30.7
2017-Aug-07 08:00N 22°42' W 093°06'1312.6 120 / 161012.3 29.9 30.8
2017-Aug-07 07:00N 22°36' W 093°18'1111.1 100 / 141012.9 29.7 30.6
2017-Aug-07 06:00N 22°36' W 093°30'1312.6 100 / 141013.4 29.7 30.6
2017-Aug-07 05:00N 22°30' W 093°42'1111.1 110 / 151013.7 29.8 30.5
2017-Aug-07 04:00N 22°30' W 093°54'1312.6 120 / 171013.6 30.0 30.5
2017-Aug-07 03:00N 22°24' W 094°06'1111.1 110 / 171012.7 29.8 30.5
2017-Aug-07 02:00N 22°24' W 094°18'1312.6 110 / 151012.0 30.0 30.6
2017-Aug-07 01:00N 22°18' W 094°30'1111.1 130 / 131011.4 30.1 30.6
2017-Aug-07 00:00N 22°18' W 094°42'1312.6 140 / 161011.3 30.3 30.5
2017-Aug-06 23:00N 22°12' W 094°54'6 5.6 150 / 161011.3 30.3 30.3
2017-Aug-06 22:00N 22°12' W 095°00'0 0.0 150 / 161011.7 30.2 30.4
2017-Aug-06 21:00N 22°12' W 095°00'0 0.0 140 / 141011.9 30.3 30.4
2017-Aug-06 20:00N 22°12' W 095°00'0 0.0 130 / 141012.3 30.2 30.3
2017-Aug-06 19:00N 22°12' W 095°00'6 5.6 140 / 121012.7 30.2 30.3
2017-Aug-06 18:00N 22°12' W 095°06'0 0.0 120 / 131013.010.8 30.127.130.3
2017-Aug-06 17:59N 22°12' W 095°06'   120 / 151013.0 30.2 30.3
Track history (hours):
 
Tides and Currents Weather Stations Pressure Air Temp Water Temp Dewpoint Dewpoint Depression Visibility Wind Speed Wind Dir Waves Ship Positions

Oceanographic research ship Ron Brown (USA)

Detailed information on ship capabilities available from University of Delaware's Ocean Information Center.

Owner: UNIVERSITY OF SOUTHERN CALIFORNIA, TERMINAL ISLAND, CA. More information available from US FCC via Universal Licensing System and Coast Guard Vessel Documentation Center.

Last reported at 2017-Aug-16 17:50 UTC. Time now 2017-Aug-16 19:11 UTC.
Position N 22°42' W 084°06'.

Type: Other ship. MMSI: 368996000.

Wind from 010 at 14 knots

Barometer 1016.6 mb
Air temperature 29.7 ° C
Water temperature 30.6 ° C

Date/timePositionNaut miles runAvg speedWind from/ knotsBaromVisibWave heightAir tempDewpointWater temp
2017-Aug-16 17:50N 22°42' W 084°06'8 8.3 010 / 141016.6 29.7 30.6
2017-Aug-16 16:51N 22°36' W 084°12'6 5.6 030 / 91017.0 29.4 30.5
2017-Aug-16 15:52N 22°36' W 084°18'8 8.3 060 / 71017.5 29.4 30.4
2017-Aug-16 14:53N 22°30' W 084°24'1111.1 070 / 111017.5 29.0 30.4
2017-Aug-16 13:53N 22°30' W 084°36'8 8.3 070 / 121017.3 28.7 30.4
2017-Aug-16 12:54N 22°24' W 084°42'8 9.1 080 / 131017.0 28.9 30.4
2017-Aug-16 12:00N 22°18' W 084°48'0 0.0 080 / 131016.310.8 28.825.030.2
2017-Aug-16 11:55N 22°18' W 084°48'6 6.1 070 / 111016.4 28.8 30.2
2017-Aug-16 10:56N 22°12' W 084°48'8 8.2 080 / 111015.8 28.9 30.2
2017-Aug-16 09:56N 22°06' W 084°54'8 8.3 080 / 101015.6 29.2 30.6
2017-Aug-16 08:57N 22°00' W 085°00'6 6.1 080 / 101015.3 29.4 30.5
2017-Aug-16 07:58N 21°54' W 085°00'8 8.3 060 / 91015.4 29.5 30.6
2017-Aug-16 06:59N 21°48' W 084°54'0 0.0 050 / 71015.8 28.7 30.6
2017-Aug-16 06:00N 21°48' W 084°54'0 0.0 070 / 61016.3 5.4 28.026.730.7
2017-Aug-16 05:59N 21°48' W 084°54'6 4.8 060 / 51016.3 28.6 30.7
2017-Aug-16 04:49N 21°48' W 085°00'6 5.7 050 / 111016.6 29.6 30.7
2017-Aug-16 03:50N 21°48' W 085°06'6 5.7 040 / 121016.5 29.9 30.5
2017-Aug-16 02:51N 21°48' W 085°12'0 0.0 040 / 111016.5 29.8 30.6
2017-Aug-16 01:52N 21°48' W 085°12'0 0.0 060 / 91016.3 29.7 30.6
2017-Aug-16 00:52N 21°48' W 085°12'13 6.4 050 / 71015.7 30.0 30.5
2017-Aug-15 22:54N 21°42' W 085°24'0 0.0 060 / 41014.5 30.0 30.2
2017-Aug-15 21:55N 21°42' W 085°24'6 5.6 090 / 71014.8 30.0 30.2
2017-Aug-15 20:55N 21°42' W 085°30'6 5.7 090 / 91014.8 29.8 30.0
2017-Aug-15 19:56N 21°42' W 085°36'6 5.7 090 / 81014.9 29.5 29.9
2017-Aug-15 18:57N 21°42' W 085°42'0 0.0 080 / 61015.3 29.5 30.0
2017-Aug-15 17:58N 21°42' W 085°42'0 0.0 080 / 71015.7 29.4 30.0
2017-Aug-15 16:59N 21°42' W 085°42'0 0.0 070 / 101016.2 29.3 29.9
2017-Aug-15 15:59N 21°42' W 085°42'13 6.4 080 / 91016.1 29.5 29.7
2017-Aug-15 14:00N 21°36' W 085°54'0 0.0 090 / 61015.7 29.5 29.7
2017-Aug-15 13:00N 21°36' W 085°54'6 5.6 090 / 41015.3 29.1 29.6
2017-Aug-15 12:00N 21°36' W 086°00'6 5.6 080 / 91014.410.8 29.126.329.6
2017-Aug-15 11:00N 21°36' W 086°06'6 5.6 090 / 91014.3 29.0 29.4
2017-Aug-15 10:00N 21°36' W 086°12'0 0.0 080 / 121014.1 29.1 29.4
2017-Aug-15 09:00N 21°36' W 086°12'6 5.6 080 / 131014.1 29.2 29.5
2017-Aug-15 08:00N 21°36' W 086°18'6 5.6 090 / 101014.0 29.2 29.6
2017-Aug-15 07:00N 21°36' W 086°24'8 8.2 100 / 101014.3 29.2 29.3
2017-Aug-15 06:00N 21°30' W 086°30'6 5.6 120 / 101015.0 5.4 28.925.829.4
2017-Aug-15 05:00N 21°30' W 086°36'6 5.6 100 / 111015.2 29.1 29.1
2017-Aug-15 04:00N 21°30' W 086°42'6 5.6 100 / 121015.9 29.1 28.6
2017-Aug-15 03:00N 21°30' W 086°36'8 8.2 110 / 81015.7 29.2 29.6
2017-Aug-15 02:00N 21°36' W 086°42'6 6.0 100 / 151014.7 29.2 29.3
2017-Aug-15 01:00N 21°42' W 086°42'1212.0 110 / 121014.0 29.2 27.7
2017-Aug-15 00:00N 21°54' W 086°42'8 8.2 090 / 121013.5 29.3 28.0
2017-Aug-14 23:00N 22°00' W 086°48'2311.5 090 / 101013.3 28.9 26.7
2017-Aug-14 21:00N 22°06' W 087°12'1111.1 090 / 101013.2 29.3 29.6
2017-Aug-14 20:00N 22°06' W 087°24'1111.1 090 / 81013.8 29.0 27.8
2017-Aug-14 19:00N 22°06' W 087°36'1312.6 060 / 61014.3 28.3 28.3
2017-Aug-14 18:00N 22°12' W 087°48'1110.9 110 / 51014.810.8 28.425.928.4
2017-Aug-14 16:59N 22°12' W 088°00'1110.9 130 / 71015.3 27.7 29.2
2017-Aug-14 15:58N 22°12' W 088°12'1111.1 150 / 91015.6 27.6 29.0
2017-Aug-14 14:58N 22°12' W 088°24'1817.7 150 / 71015.4 27.1 27.8
2017-Aug-14 13:58N 22°18' W 088°42'1111.1 140 / 81014.8 27.2 28.1
2017-Aug-14 12:58N 22°18' W 088°54'1313.1 140 / 81014.3 27.5 28.1
2017-Aug-14 12:00N 22°12' W 089°06'0 0.0 140 / 131013.810.8 27.625.429.2
2017-Aug-14 11:59N 22°12' W 089°06'1110.9 150 / 111013.8 27.7 29.1
2017-Aug-14 10:58N 22°12' W 089°18'1312.6 150 / 131013.2 27.6 29.3
2017-Aug-14 09:58N 22°06' W 089°30'1312.9 140 / 171012.7 27.5 28.9
2017-Aug-14 08:59N 22°00' W 089°42'8 8.0 120 / 151012.8 27.1 27.8
2017-Aug-14 07:58N 21°54' W 089°48'1111.3 110 / 151012.8 27.9 28.6
2017-Aug-14 06:59N 21°54' W 090°00'1312.9 100 / 131013.0 27.3 28.2
2017-Aug-14 06:00N 21°48' W 090°12'0 0.0 100 / 191013.7 5.4 27.625.928.7
2017-Aug-14 05:59N 21°48' W 090°12'1312.7 100 / 141013.6 27.9 28.9
2017-Aug-14 04:59N 21°42' W 090°24'1312.5 110 / 161014.1 27.9 29.2
2017-Aug-14 03:58N 21°36' W 090°36'1312.7 100 / 121014.1 27.9 28.0
2017-Aug-14 02:58N 21°30' W 090°48'1111.2 070 / 111013.6 28.0 27.4
2017-Aug-14 01:58N 21°30' W 091°00'8 8.2 050 / 111013.4 28.3 28.9
2017-Aug-14 00:58N 21°24' W 091°06'1313.1 030 / 111013.2 28.2 29.1
2017-Aug-14 00:00N 21°18' W 091°18'1616.1 030 / 131012.910.8 28.325.229.3
2017-Aug-13 22:59N 21°06' W 091°30'1312.7 030 / 81012.9 28.3 29.5
2017-Aug-13 21:59N 21°00' W 091°42'1312.7 050 / 51012.8 28.3 29.8
2017-Aug-13 20:59N 20°54' W 091°54'8 8.4 100 / 61013.1 28.4 29.8
2017-Aug-13 20:00N 20°48' W 092°00'1313.2 100 / 91013.6 28.7 29.9
2017-Aug-13 19:00N 20°36' W 092°06'1312.7 090 / 91013.7 28.7 29.9
2017-Aug-13 18:00N 20°30' W 092°18'1313.3 090 / 91014.2 28.6 29.3
2017-Aug-13 17:00N 20°18' W 092°24'1312.8 080 / 81014.7 28.7 29.3
2017-Aug-13 16:00N 20°12' W 092°36'1313.3 100 / 71015.1 28.8 29.2
2017-Aug-13 15:00N 20°00' W 092°42'8 8.2 100 / 101015.0 28.8 29.4
2017-Aug-13 14:00N 19°54' W 092°48'1212.0 090 / 121014.3 28.7 29.3
2017-Aug-13 13:00N 19°42' W 092°48'1313.3 130 / 61014.1 28.2 29.4
2017-Aug-13 12:00N 19°30' W 092°54'6 6.0 110 / 51013.310.8 27.424.129.2
2017-Aug-13 11:00N 19°24' W 092°54'1313.3 060 / 51012.7 27.5 29.1
2017-Aug-13 10:00N 19°12' W 093°00'1212.0 110 / 81012.5 27.0 28.4
2017-Aug-13 09:00N 19°00' W 093°00'1212.0 130 / 191013.5 26.7 28.3
2017-Aug-13 08:00N 18°48' W 093°00'0 0.0 110 / 181013.6 26.6 28.2
2017-Aug-13 06:59N 18°48' W 093°00'8 8.4 070 / 161014.1 28.4 27.9
2017-Aug-13 06:00N 18°54' W 093°06'8 8.3 050 / 161014.1 28.2 28.3
2017-Aug-13 05:00N 19°00' W 093°12'8 8.3 030 / 121014.4 28.5 29.1
2017-Aug-13 04:00N 19°06' W 093°18'0 0.0 030 / 121014.8 28.6 29.0
2017-Aug-13 03:00N 19°06' W 093°18'0 0.0 040 / 151014.5 28.6 29.0
2017-Aug-13 02:00N 19°06' W 093°18'6 6.0 030 / 111014.0 28.6 29.3
2017-Aug-13 01:00N 19°12' W 093°18'1313.3 030 / 121013.6 28.5 29.2
2017-Aug-13 00:00N 19°24' W 093°24'6 5.9 030 / 111013.310.8 28.726.529.2
2017-Aug-12 22:59N 19°30' W 093°24'8 8.4 030 / 91013.3 28.7 29.1
2017-Aug-12 22:00N 19°36' W 093°30'0 0.0 060 / 81013.6 28.7 29.4
2017-Aug-12 21:00N 19°36' W 093°30'6 6.0 110 / 101013.8 28.7 29.1
2017-Aug-12 20:00N 19°42' W 093°30'8 8.2 120 / 91014.4 28.9 29.1
2017-Aug-12 19:00N 19°48' W 093°36'8 8.2 110 / 101015.0 28.8 29.3
2017-Aug-12 18:00N 19°54' W 093°42'6 6.0 120 / 141015.7 29.0 29.4
2017-Aug-12 17:00N 20°00' W 093°42'0 0.0 110 / 91016.2 29.1 29.7
2017-Aug-12 16:00N 20°00' W 093°42'0 0.0 090 / 111016.2 29.0 29.6
2017-Aug-12 14:59N 20°00' W 093°42'8 8.2 080 / 131015.4 28.7 29.5
2017-Aug-12 13:59N 20°06' W 093°48'8 8.2 070 / 131015.4 28.7 29.3
2017-Aug-12 12:59N 20°12' W 093°54'8 8.4 090 / 121015.4 28.6 29.0
2017-Aug-12 12:00N 20°18' W 094°00'8 8.1 080 / 91015.210.8 27.924.628.9
2017-Aug-12 10:59N 20°24' W 094°06'8 8.4 090 / 91014.8 28.1 28.8
2017-Aug-12 10:00N 20°30' W 094°12'6 6.0 100 / 101014.5 27.6 28.6
2017-Aug-12 09:00N 20°36' W 094°12'0 0.0 050 / 71014.4 27.8 28.5
2017-Aug-12 08:00N 20°36' W 094°12'6 5.6 070 / 91014.9 27.9 28.5
2017-Aug-12 07:00N 20°36' W 094°18'6 5.6 080 / 111015.3 28.0 28.7
2017-Aug-12 06:00N 20°36' W 094°24'6 5.6 080 / 111016.0 5.4 27.525.928.6
2017-Aug-12 05:00N 20°36' W 094°30'8 8.2 080 / 101016.5 28.3 28.5
2017-Aug-12 04:00N 20°42' W 094°36'6 5.6 070 / 111015.8 28.3 28.8
2017-Aug-12 03:00N 20°42' W 094°42'0 0.0 080 / 151015.7 28.4 28.9
2017-Aug-12 02:00N 20°42' W 094°42'0 0.0 080 / 161015.2 28.5 29.0
2017-Aug-12 01:00N 20°42' W 094°42'8 4.1 080 / 141014.8 28.4 29.2
2017-Aug-11 23:00N 20°48' W 094°36'1312.7 070 / 121014.3 29.0 28.8
2017-Aug-11 22:00N 20°54' W 094°24'1312.7 070 / 121014.8 28.9 28.8
2017-Aug-11 21:00N 21°00' W 094°12'1312.7 100 / 101015.7 28.7 28.8
2017-Aug-11 20:00N 21°06' W 094°00'2512.3 090 / 111016.5 28.8 29.0
2017-Aug-11 18:00N 21°24' W 093°42'8 8.2 100 / 111017.3 28.9 29.1
2017-Aug-11 17:00N 21°30' W 093°36'1312.7 100 / 111017.3 28.9 29.2
2017-Aug-11 16:00N 21°36' W 093°24'1312.7 110 / 131017.3 29.0 29.3
2017-Aug-11 15:00N 21°42' W 093°12'1312.7 120 / 141017.1 29.1 29.7
2017-Aug-11 14:00N 21°48' W 093°00'8 8.2 100 / 121016.9 29.2 29.5
2017-Aug-11 13:00N 21°54' W 092°54'6 6.0 100 / 81016.9 29.2 29.5
2017-Aug-11 12:00N 22°00' W 092°54'0 0.0 120 / 131016.0 29.1 29.5
2017-Aug-11 11:00N 22°00' W 092°54'0 0.0 120 / 151015.3 28.9 29.5
2017-Aug-11 10:00N 22°00' W 092°54'8 8.2 100 / 171015.0 29.0 29.5
2017-Aug-11 09:00N 21°54' W 092°48'6 5.6 100 / 191015.4 29.2 29.5
2017-Aug-11 08:00N 21°54' W 092°42'8 8.2 100 / 191015.8 29.2 29.5
2017-Aug-11 07:00N 21°48' W 092°36'6 5.6 100 / 221015.9 29.0 29.5
2017-Aug-11 06:00N 21°48' W 092°30'1312.5 090 / 221016.1 5.4 29.126.629.5
2017-Aug-11 04:59N 21°42' W 092°18'0 0.0 080 / 221016.5 29.2 29.4
2017-Aug-11 03:59N 21°42' W 092°18'6 5.5 060 / 211016.6 29.3 29.4
2017-Aug-11 02:58N 21°42' W 092°12'8 8.2 080 / 201016.2 29.4 29.5
2017-Aug-11 01:58N 21°36' W 092°06'6 5.6 070 / 201015.3 29.3 29.8
2017-Aug-11 00:58N 21°36' W 092°00'18 8.9 060 / 161014.9 29.1 29.8
2017-Aug-10 22:58N 21°30' W 091°42'8 8.2 070 / 141014.6 29.9 29.8
2017-Aug-10 21:58N 21°24' W 091°36'6 5.6 070 / 131014.7 29.4 29.7
2017-Aug-10 20:58N 21°24' W 091°30'0 0.0 050 / 131014.5 28.3 29.6
2017-Aug-10 19:58N 21°24' W 091°30'1312.7 080 / 111015.1 28.8 29.4
2017-Aug-10 18:58N 21°18' W 091°18'6 5.8 090 / 121015.6 28.4 29.0
2017-Aug-10 18:00N 21°18' W 091°12'0 0.0 100 / 131016.110.8 32.027.028.9
2017-Aug-10 17:58N 21°18' W 091°12'6 5.5 090 / 121016.0 28.4 28.9
2017-Aug-10 16:57N 21°18' W 091°06'1312.7 090 / 131016.4 28.2 28.9
2017-Aug-10 15:57N 21°12' W 090°54'6 5.6 090 / 151016.4 27.5 28.4
2017-Aug-10 14:57N 21°12' W 090°48'8 8.2 100 / 151016.1 27.1 27.6
2017-Aug-10 13:57N 21°06' W 090°42'1212.0 080 / 161015.4 26.6 27.4
2017-Aug-10 12:57N 21°18' W 090°42'8 8.6 070 / 131015.1 26.3 26.9
2017-Aug-10 12:00N 21°24' W 090°36'0 0.0 060 / 131015.010.8 25.824.726.3
2017-Aug-10 11:57N 21°24' W 090°36'1313.2 070 / 121014.8 25.7 26.2
2017-Aug-10 10:57N 21°36' W 090°30'1312.9 090 / 131015.0 26.2 26.0
2017-Aug-10 09:58N 21°42' W 090°18'1312.7 090 / 121015.0 26.4 26.6
2017-Aug-10 08:58N 21°48' W 090°06'1111.1 090 / 131015.1 26.5 27.3
2017-Aug-10 07:58N 21°48' W 089°54'1111.1 090 / 121015.3 25.9 26.5
2017-Aug-10 06:58N 21°48' W 089°42'1313.1 090 / 121015.7 25.7 25.0
2017-Aug-10 06:00N 21°54' W 089°30'0 0.0 100 / 151016.4 5.4 26.125.326.3
2017-Aug-10 05:58N 21°54' W 089°30'1111.1 100 / 141016.3 26.4 26.6
2017-Aug-10 04:58N 21°54' W 089°18'1312.6 090 / 151016.3 27.1 27.3
2017-Aug-10 03:58N 22°00' W 089°06'1111.1 090 / 151016.0 27.5 27.9
2017-Aug-10 02:58N 22°00' W 088°54'1312.4 080 / 141015.3 27.5 28.0
2017-Aug-10 01:57N 22°06' W 088°42'1716.7 080 / 131014.9 27.0 26.8
2017-Aug-10 00:57N 22°06' W 088°24'2311.6 080 / 131014.2 27.1 26.4
2017-Aug-09 22:58N 22°00' W 088°00'8 8.2 090 / 151013.3 27.9 25.6
2017-Aug-09 21:58N 21°54' W 087°54'6 5.6 070 / 161012.7 26.8 24.9
2017-Aug-09 20:58N 21°54' W 088°00'6 6.0 080 / 161012.7 26.6 24.4
2017-Aug-09 19:58N 22°00' W 088°00'6 6.0 070 / 181012.6 27.2 25.9
2017-Aug-09 18:58N 22°06' W 088°00'6 6.2 090 / 191013.6 27.8 27.4
2017-Aug-09 18:00N 22°12' W 088°00'0 0.0 090 / 191014.110.8 28.326.628.7
2017-Aug-09 17:59N 22°12' W 088°00'1212.0 100 / 191014.1 28.3 28.8
2017-Aug-09 16:59N 22°24' W 088°00'6 6.0 100 / 191014.5 28.3 28.4
2017-Aug-09 15:59N 22°30' W 088°00'0 0.0 110 / 161014.8 28.4 28.6
2017-Aug-09 14:59N 22°30' W 088°00'6 6.0 110 / 151014.7 28.5 28.5
2017-Aug-09 13:59N 22°36' W 088°00'6 6.0 110 / 201013.9 28.7 28.9
2017-Aug-09 12:59N 22°42' W 088°00'1212.2 090 / 211013.5 28.6 28.9
2017-Aug-09 12:00N 22°54' W 088°00'0 0.0 090 / 191013.010.8 28.125.328.7
2017-Aug-09 11:59N 22°54' W 088°00'6 6.0 090 / 211013.1 28.1 28.7
2017-Aug-09 10:59N 23°00' W 088°00'6 6.1 070 / 161012.7 28.2 29.4
2017-Aug-09 10:00N 23°06' W 088°00'6 6.0 090 / 221013.0 28.1 29.6
2017-Aug-09 09:00N 23°12' W 088°00'6 6.0 080 / 161012.9 28.3 29.6
2017-Aug-09 08:00N 23°18' W 088°00'6 6.0 090 / 201012.8 29.0 29.6
2017-Aug-09 07:00N 23°24' W 088°00'1212.0 090 / 181013.3 28.5 29.5
2017-Aug-09 06:00N 23°36' W 088°00'6 6.0 080 / 131014.2 5.4 28.525.829.7
2017-Aug-09 05:00N 23°42' W 088°00'0 0.0 080 / 141014.5 28.9 29.6
2017-Aug-09 04:00N 23°42' W 088°00'6 6.0 080 / 121014.7 28.5 29.4
2017-Aug-09 03:00N 23°48' W 088°00'6 6.0 100 / 161014.2 28.3 29.5
2017-Aug-09 02:00N 23°54' W 088°00'1212.0 100 / 141013.5 27.7 29.4
2017-Aug-09 01:00N 24°06' W 088°00'6 6.0 130 / 141013.3 26.4 29.0
2017-Aug-09 00:00N 24°12' W 088°00'6 6.0 180 / 121013.4 5.4 25.924.729.2
2017-Aug-08 23:00N 24°18' W 088°00'0 0.0 090 / 171012.4 30.1 29.3
2017-Aug-08 22:00N 24°18' W 088°00'0 0.0 090 / 141012.4 29.9 29.4
2017-Aug-08 21:00N 24°18' W 088°00'6 6.0 080 / 181012.7 30.1 29.5
2017-Aug-08 20:00N 24°24' W 088°00'1212.0 090 / 201012.8 30.0 29.5
2017-Aug-08 19:00N 24°36' W 088°00'6 6.0 080 / 171013.5 30.0 30.0
2017-Aug-08 18:00N 24°42' W 088°00'6 6.0 070 / 141014.5 29.3 30.0
2017-Aug-08 17:00N 24°48' W 088°00'6 6.0 080 / 171014.5 29.4 30.1
2017-Aug-08 16:00N 24°54' W 088°00'6 6.0 080 / 141014.4 29.7 30.2
2017-Aug-08 15:00N 25°00' W 088°00'0 0.0 100 / 131014.4 30.3 30.0
2017-Aug-08 14:00N 25°00' W 088°00'0 0.0 100 / 151014.5 29.7 30.1
2017-Aug-08 13:00N 25°00' W 088°00'0 0.0 100 / 171014.2 29.9 30.1
2017-Aug-08 12:00N 25°00' W 088°00'6 6.0 110 / 171013.710.8 29.624.330.1
2017-Aug-08 11:00N 24°54' W 088°00'1212.4 120 / 151013.0 29.5 30.2
2017-Aug-08 10:00N 24°48' W 088°12'8 8.1 110 / 191012.5 29.5 30.0
2017-Aug-08 09:00N 24°42' W 088°18'1212.4 110 / 171012.4 29.1 29.7
2017-Aug-08 08:00N 24°36' W 088°30'1212.5 110 / 171012.5 28.9 30.4
2017-Aug-08 07:00N 24°30' W 088°42'8 8.1 090 / 111012.8 29.3 30.5
2017-Aug-08 06:00N 24°24' W 088°48'1616.2 110 / 221013.5 5.4 28.925.330.5
2017-Aug-08 05:00N 24°12' W 089°00'1212.5 110 / 161013.8 29.3 30.5
2017-Aug-08 04:00N 24°06' W 089°12'1212.5 080 / 161013.7 29.8 30.5
2017-Aug-08 03:00N 24°00' W 089°24'1312.5 060 / 141013.5 29.9 30.5
2017-Aug-08 02:00N 23°54' W 089°36'8 8.1 060 / 161012.6 30.1 30.5
2017-Aug-08 01:00N 23°48' W 089°42'1616.3 070 / 111012.2 29.9 30.6
2017-Aug-08 00:00N 23°36' W 089°54'1312.5 080 / 121012.2 29.9 30.6
2017-Aug-07 23:00N 23°30' W 090°06'1312.5 080 / 101012.3 29.8 30.7
2017-Aug-07 22:00N 23°24' W 090°18'1312.5 080 / 101012.3 29.9 30.8
2017-Aug-07 21:00N 23°18' W 090°30'1111.0 070 / 91012.5 29.8 30.8
2017-Aug-07 20:00N 23°18' W 090°42'1312.6 070 / 91013.2 29.7 30.7
2017-Aug-07 19:00N 23°12' W 090°54'6 5.5 090 / 101013.7 29.9 30.7
2017-Aug-07 18:00N 23°12' W 091°00'1817.6 110 / 101014.310.8 30.024.630.7
2017-Aug-07 17:00N 23°06' W 091°18'1111.0
2017-Aug-07 16:00N 23°06' W 091°30'1312.6 130 / 111014.2 30.0 30.7
2017-Aug-07 15:00N 23°00' W 091°42'1111.0 110 / 111014.0 29.8 30.6
2017-Aug-07 14:00N 23°00' W 091°54'1312.6 110 / 121013.5 29.8 30.7
2017-Aug-07 13:00N 22°54' W 092°06'1111.1 120 / 131013.1 30.0 30.7
2017-Aug-07 12:00N 22°54' W 092°18'1312.6 130 / 161012.610.8 30.025.430.6
2017-Aug-07 11:00N 22°48' W 092°30'1111.1 120 / 161012.3 29.8 30.7
2017-Aug-07 10:00N 22°48' W 092°42'1312.6 120 / 151012.1 30.0 30.7
2017-Aug-07 09:00N 22°42' W 092°54'1111.1 120 / 161012.2 30.0 30.7
2017-Aug-07 08:00N 22°42' W 093°06'1312.6 120 / 161012.3 29.9 30.8
2017-Aug-07 07:00N 22°36' W 093°18'1111.1 100 / 141012.9 29.7 30.6
2017-Aug-07 06:00N 22°36' W 093°30'1312.6 100 / 141013.4 29.7 30.6
2017-Aug-07 05:00N 22°30' W 093°42'1111.1 110 / 151013.7 29.8 30.5
2017-Aug-07 04:00N 22°30' W 093°54'1312.6 120 / 171013.6 30.0 30.5
2017-Aug-07 03:00N 22°24' W 094°06'1111.1 110 / 171012.7 29.8 30.5
2017-Aug-07 02:00N 22°24' W 094°18'1312.6 110 / 151012.0 30.0 30.6
2017-Aug-07 01:00N 22°18' W 094°30'1111.1 130 / 131011.4 30.1 30.6
2017-Aug-07 00:00N 22°18' W 094°42'1312.6 140 / 161011.3 30.3 30.5
2017-Aug-06 23:00N 22°12' W 094°54'6 5.6 150 / 161011.3 30.3 30.3
2017-Aug-06 22:00N 22°12' W 095°00'0 0.0 150 / 161011.7 30.2 30.4
2017-Aug-06 21:00N 22°12' W 095°00'0 0.0 140 / 141011.9 30.3 30.4
2017-Aug-06 20:00N 22°12' W 095°00'0 0.0 130 / 141012.3 30.2 30.3
2017-Aug-06 19:00N 22°12' W 095°00'6 5.6 140 / 121012.7 30.2 30.3
2017-Aug-06 18:00N 22°12' W 095°06'0 0.0 120 / 131013.010.8 30.127.130.3
2017-Aug-06 17:59N 22°12' W 095°06'   120 / 151013.0 30.2 30.3

Dump ship's entire track history